Time;durP1;ratioP1;P1;durP2;ratioP2;P2;SDS_P1;SDS_P2;PMS_P1;PMS_P2;Temp;Humidity;BMP_temperature;BMP_pressure;BME280_temperature;BME280_humidity;BME280_pressure;Samples;Min_cycle;Max_cycle;Signal;HPM_P1;HPM_P2
2022/10/23 00:00:35;;;;;;;25.10;12.35;;;13.10;99.90;;;;;;5097970;28;20365;-72
2022/10/23 00:03:01;;;;;;;24.77;12.50;;;13.10;99.90;;;;;;5107602;28;20108;-74
2022/10/23 00:05:27;;;;;;;26.90;13.13;;;13.10;99.90;;;;;;5099461;28;20090;-71
2022/10/23 00:07:55;;;;;;;20.95;12.43;;;13.00;99.90;;;;;;5105840;28;20442;-72
2022/10/23 00:10:23;;;;;;;25.77;13.07;;;13.00;99.90;;;;;;5110326;28;20424;-72
2022/10/23 00:12:48;;;;;;;23.23;13.27;;;13.00;99.90;;;;;;5101605;28;20034;-72
2022/10/23 00:15:17;;;;;;;23.42;13.13;;;13.00;99.90;;;;;;5103624;28;20036;-75
2022/10/23 00:17:43;;;;;;;21.52;13.18;;;13.00;99.90;;;;;;5102525;28;20024;-72
2022/10/23 00:20:10;;;;;;;24.27;12.52;;;13.00;99.90;;;;;;5103642;28;20019;-73
2022/10/23 00:22:36;;;;;;;22.67;12.65;;;13.00;99.90;;;;;;5108617;28;20095;-72
2022/10/23 00:25:02;;;;;;;26.55;12.68;;;12.90;99.90;;;;;;5102779;28;20030;-72
2022/10/23 00:27:28;;;;;;;22.25;12.43;;;13.00;99.90;;;;;;5110421;28;20479;-72
2022/10/23 00:29:54;;;;;;;21.50;12.88;;;13.00;99.90;;;;;;5088287;28;20053;-73
2022/10/23 00:32:19;;;;;;;26.88;12.77;;;13.00;99.90;;;;;;5089702;28;20022;-72
2022/10/23 00:34:45;;;;;;;21.42;13.40;;;13.00;99.90;;;;;;5103660;28;20069;-72
2022/10/23 00:37:10;;;;;;;22.38;13.10;;;13.00;99.90;;;;;;5094669;28;20027;-72
2022/10/23 00:39:36;;;;;;;26.30;13.10;;;13.00;99.90;;;;;;5108484;28;20115;-72
2022/10/23 00:42:02;;;;;;;23.60;13.20;;;13.00;99.90;;;;;;5093866;28;20019;-73
2022/10/23 00:44:27;;;;;;;24.23;13.98;;;13.00;99.90;;;;;;5109825;28;20026;-71
2022/10/23 00:46:53;;;;;;;27.10;14.07;;;13.00;99.90;;;;;;5094802;28;20093;-72
2022/10/23 00:49:19;;;;;;;20.17;13.68;;;13.00;99.90;;;;;;5113592;28;20016;-73
2022/10/23 00:51:50;;;;;;;26.80;13.23;;;13.00;99.90;;;;;;5112567;28;20055;-73
2022/10/23 00:54:19;;;;;;;24.73;14.15;;;13.00;99.90;;;;;;5112929;28;20403;-72
2022/10/23 00:56:45;;;;;;;27.25;13.05;;;13.00;99.90;;;;;;5101840;28;20028;-73
2022/10/23 00:59:12;;;;;;;29.55;13.65;;;13.10;99.90;;;;;;5096535;28;20035;-73
2022/10/23 01:01:37;;;;;;;22.15;13.13;;;13.10;99.90;;;;;;5103258;28;20146;-73
2022/10/23 01:04:06;;;;;;;25.73;14.07;;;13.10;99.90;;;;;;5093172;28;20114;-73
2022/10/23 01:06:48;;;;;;;25.13;12.85;;;13.10;99.90;;;;;;5104652;28;20032;-72
2022/10/23 01:09:33;;;;;;;24.13;12.32;;;13.10;99.90;;;;;;5094507;28;20024;-72
2022/10/23 01:12:05;;;;;;;22.55;12.60;;;13.10;99.90;;;;;;5085365;28;20107;-73
2022/10/23 01:14:41;;;;;;;26.15;13.80;;;13.00;99.90;;;;;;5100898;28;20031;-72
2022/10/23 01:17:42;;;;;;;25.98;13.35;;;13.10;99.90;;;;;;5103540;28;20511;-71
2022/10/23 01:20:28;;;;;;;25.80;13.07;;;13.00;99.90;;;;;;5111621;28;20035;-71
2022/10/23 01:23:08;;;;;;;24.20;14.23;;;13.00;99.90;;;;;;5112839;28;20045;-72
2022/10/23 01:25:57;;;;;;;25.77;13.50;;;13.00;99.90;;;;;;5103700;28;20028;-74
2022/10/23 01:28:50;;;;;;;23.08;13.13;;;13.00;99.90;;;;;;5112883;28;20039;-72
2022/10/23 01:31:43;;;;;;;21.98;13.07;;;13.00;99.90;;;;;;5099022;28;20027;-71
2022/10/23 01:34:14;;;;;;;21.70;13.43;;;13.00;99.90;;;;;;5110103;28;20472;-72
2022/10/23 01:36:41;;;;;;;24.45;12.32;;;13.00;99.90;;;;;;5101238;28;20062;-73
2022/10/23 01:39:13;;;;;;;21.08;12.70;;;13.00;99.90;;;;;;5111582;28;20625;-72
2022/10/23 01:41:56;;;;;;;20.65;14.02;;;13.00;99.90;;;;;;5105444;28;20028;-72
2022/10/23 01:44:31;;;;;;;22.30;13.15;;;13.00;99.90;;;;;;5106699;28;20019;-75
2022/10/23 01:46:57;;;;;;;25.23;12.93;;;13.00;99.90;;;;;;5099580;28;20024;-73
2022/10/23 01:49:23;;;;;;;25.83;14.07;;;13.00;99.90;;;;;;5097648;28;20028;-74
2022/10/23 01:51:57;;;;;;;24.73;13.48;;;13.00;99.90;;;;;;5102007;28;20043;-72
2022/10/23 01:54:28;;;;;;;21.58;13.65;;;13.00;99.90;;;;;;5112017;28;20058;-72
2022/10/23 01:56:55;;;;;;;24.52;13.75;;;13.00;99.90;;;;;;5098087;28;20011;-73
2022/10/23 01:59:25;;;;;;;28.30;13.55;;;12.90;99.90;;;;;;5111880;28;20436;-73
2022/10/23 02:01:54;;;;;;;25.88;13.65;;;13.00;99.90;;;;;;5107269;28;20024;-73
2022/10/23 02:04:25;;;;;;;30.27;13.93;;;13.00;99.90;;;;;;5084958;28;20077;-72
2022/10/23 02:06:51;;;;;;;26.00;13.70;;;13.00;99.90;;;;;;5097274;28;20024;-72
2022/10/23 02:09:17;;;;;;;22.55;13.07;;;12.90;99.90;;;;;;5102002;28;20073;-72
2022/10/23 02:11:58;;;;;;;22.63;13.00;;;12.90;99.90;;;;;;5105005;28;20515;-72
2022/10/23 02:14:38;;;;;;;24.45;13.27;;;12.90;99.90;;;;;;5098857;28;20475;-73
2022/10/23 02:17:34;;;;;;;26.33;13.35;;;12.90;99.90;;;;;;5111581;28;20468;-73
2022/10/23 02:20:21;;;;;;;19.95;12.55;;;12.80;99.90;;;;;;5079136;28;20093;-72
2022/10/23 02:23:13;;;;;;;25.80;12.65;;;12.80;99.90;;;;;;5091772;28;20042;-72
2022/10/23 02:25:47;;;;;;;21.10;12.50;;;12.80;99.90;;;;;;5099385;28;20023;-73
2022/10/23 02:28:17;;;;;;;26.23;13.27;;;12.70;99.90;;;;;;5100421;28;20107;-73
2022/10/23 02:30:46;;;;;;;22.48;12.93;;;12.70;99.90;;;;;;5105192;28;20479;-73
2022/10/23 02:33:13;;;;;;;20.63;12.90;;;12.70;99.90;;;;;;5091646;28;20035;-72
2022/10/23 02:35:39;;;;;;;20.77;13.15;;;12.70;99.90;;;;;;5106901;28;20020;-72
2022/10/23 02:38:40;;;;;;;27.92;13.15;;;12.60;99.90;;;;;;5102860;28;20039;-73
2022/10/23 02:41:18;;;;;;;22.33;12.77;;;12.60;99.90;;;;;;5110519;28;20034;-72
2022/10/23 02:43:56;;;;;;;27.67;13.20;;;12.60;99.90;;;;;;5098604;28;20028;-72
2022/10/23 02:46:32;;;;;;;23.10;12.35;;;12.60;99.90;;;;;;5095972;28;20032;-72
2022/10/23 02:49:04;;;;;;;24.13;13.32;;;12.60;99.90;;;;;;5109504;28;20058;-73
2022/10/23 02:51:44;;;;;;;24.83;13.02;;;12.50;99.90;;;;;;5106838;28;20079;-73
2022/10/23 02:54:30;;;;;;;24.67;13.52;;;12.50;99.90;;;;;;5090662;28;20425;-72
2022/10/23 02:57:02;;;;;;;;;;;12.50;99.90;;;;;;5098956;28;20093;-73
2022/10/23 02:59:42;;;;;;;28.73;13.45;;;12.50;99.90;;;;;;5098895;28;19967;-72
2022/10/23 03:02:18;;;;;;;24.48;12.85;;;12.50;99.90;;;;;;5110103;28;20445;-72
2022/10/23 03:04:44;;;;;;;;;;;12.50;99.90;;;;;;5103494;28;20028;-73
2022/10/23 03:07:12;;;;;;;23.90;13.00;;;12.40;99.90;;;;;;5099450;28;20395;-72
2022/10/23 03:09:37;;;;;;;23.55;13.45;;;12.50;99.90;;;;;;5104807;28;20422;-73
2022/10/23 03:12:03;;;;;;;26.80;14.13;;;12.50;99.90;;;;;;5103491;28;20015;-72
2022/10/23 03:14:28;;;;;;;29.13;14.70;;;12.50;99.90;;;;;;5111163;28;20023;-72
2022/10/23 03:16:54;;;;;;;24.98;13.95;;;12.50;99.90;;;;;;5110711;28;20034;-73
2022/10/23 03:19:19;;;;;;;25.38;14.23;;;12.50;99.90;;;;;;5085764;28;20077;-73
2022/10/23 03:21:45;;;;;;;21.80;13.45;;;12.50;99.90;;;;;;5103243;28;20020;-72
2022/10/23 03:24:11;;;;;;;28.30;14.32;;;12.50;99.90;;;;;;5092120;28;20541;-72
2022/10/23 03:26:36;;;;;;;21.02;13.80;;;12.50;99.90;;;;;;5091445;28;20034;-72
2022/10/23 03:29:02;;;;;;;24.05;12.93;;;12.50;99.90;;;;;;5109717;28;20367;-72
2022/10/23 03:31:27;;;;;;;25.65;13.70;;;12.50;99.90;;;;;;5110976;28;20391;-73
2022/10/23 03:33:53;;;;;;;27.67;13.82;;;12.50;99.90;;;;;;5107784;28;20012;-73
2022/10/23 03:36:18;;;;;;;21.55;12.07;;;12.60;99.90;;;;;;5097497;28;20027;-73
2022/10/23 03:38:44;;;;;;;26.50;14.15;;;12.50;99.90;;;;;;5110454;28;20015;-72
2022/10/23 03:41:09;;;;;;;26.17;14.05;;;12.60;99.90;;;;;;5110574;28;20138;-73
2022/10/23 03:43:35;;;;;;;22.95;12.80;;;12.60;99.90;;;;;;5110083;28;20089;-73
2022/10/23 03:46:01;;;;;;;22.80;12.98;;;12.60;99.90;;;;;;5106178;28;20024;-72
2022/10/23 03:48:27;;;;;;;24.33;13.13;;;12.60;99.90;;;;;;5089839;28;20081;-72
2022/10/23 03:50:52;;;;;;;24.75;12.98;;;12.60;99.90;;;;;;5090993;28;20476;-72
2022/10/23 03:53:18;;;;;;;25.75;12.70;;;12.60;99.90;;;;;;5110399;28;20415;-72
2022/10/23 03:55:44;;;;;;;23.35;13.48;;;12.60;99.90;;;;;;5096819;28;20073;-72
2022/10/23 03:58:10;;;;;;;23.40;13.52;;;12.60;99.90;;;;;;5108332;28;20499;-72
2022/10/23 04:00:36;;;;;;;25.73;13.38;;;12.60;99.90;;;;;;5098092;28;20027;-72
2022/10/23 04:03:01;;;;;;;24.55;12.45;;;12.60;99.90;;;;;;5106405;28;20568;-72
2022/10/23 04:05:27;;;;;;;20.67;12.68;;;12.60;99.90;;;;;;5110362;28;20115;-73
2022/10/23 04:07:52;;;;;;;25.08;12.50;;;12.70;99.90;;;;;;5109878;28;20020;-72
2022/10/23 04:10:18;;;;;;;23.17;12.20;;;12.60;99.90;;;;;;5110857;28;20490;-72
2022/10/23 04:12:44;;;;;;;21.45;12.20;;;12.70;99.90;;;;;;5101924;28;20032;-73
2022/10/23 04:15:10;;;;;;;20.83;12.50;;;12.60;99.90;;;;;;5089529;28;20082;-72
2022/10/23 04:17:35;;;;;;;26.52;13.18;;;12.70;99.90;;;;;;5108455;28;20028;-72
2022/10/23 04:20:01;;;;;;;24.77;12.00;;;12.70;99.90;;;;;;5092120;28;20521;-72
2022/10/23 04:22:26;;;;;;;21.17;11.90;;;12.70;99.90;;;;;;5095941;28;20099;-73
2022/10/23 04:24:52;;;;;;;17.75;11.32;;;12.70;99.90;;;;;;5108772;28;20483;-72
2022/10/23 04:27:17;;;;;;;22.48;11.65;;;12.70;99.90;;;;;;5113972;28;20121;-72
2022/10/23 04:29:43;;;;;;;20.98;11.52;;;12.70;99.90;;;;;;5114412;28;20020;-72
2022/10/23 04:32:09;;;;;;;23.83;11.32;;;12.70;99.90;;;;;;5112175;28;20023;-73
2022/10/23 04:34:34;;;;;;;22.30;11.23;;;12.70;99.90;;;;;;5113947;28;20026;-73
2022/10/23 04:37:00;;;;;;;22.10;11.68;;;12.70;99.90;;;;;;5100080;28;20032;-71
2022/10/23 04:39:25;;;;;;;22.48;11.75;;;12.70;99.90;;;;;;5081189;28;20028;-73
2022/10/23 04:41:51;;;;;;;22.13;10.68;;;12.70;99.90;;;;;;5102596;28;20026;-72
2022/10/23 04:44:17;;;;;;;22.70;10.95;;;12.70;99.90;;;;;;5110960;28;20016;-72
2022/10/23 04:46:42;;;;;;;16.67;10.25;;;12.70;99.90;;;;;;5113282;28;20088;-73
2022/10/23 04:49:08;;;;;;;20.48;10.20;;;12.70;99.90;;;;;;5093497;28;20024;-73
2022/10/23 04:51:33;;;;;;;18.42;9.77;;;12.70;99.90;;;;;;5093390;28;20051;-73
2022/10/23 04:53:59;;;;;;;18.42;9.98;;;12.70;99.90;;;;;;5095492;28;20103;-72
2022/10/23 04:56:24;;;;;;;18.98;9.63;;;12.70;99.90;;;;;;5106509;28;20028;-72
2022/10/23 04:58:51;;;;;;;15.70;9.77;;;12.70;99.90;;;;;;5104187;28;20091;-73
2022/10/23 05:01:17;;;;;;;20.83;9.75;;;12.80;99.90;;;;;;5095184;28;20506;-73
2022/10/23 05:03:43;;;;;;;16.67;8.55;;;12.70;99.90;;;;;;5113672;28;20027;-73
2022/10/23 05:06:09;;;;;;;24.85;9.82;;;12.80;99.90;;;;;;5098470;28;20077;-72
2022/10/23 05:08:34;;;;;;;17.83;8.95;;;12.80;99.90;;;;;;5105891;28;20028;-72
2022/10/23 05:11:00;;;;;;;20.55;9.02;;;12.80;99.90;;;;;;5106568;28;20080;-72
2022/10/23 05:13:26;;;;;;;14.35;8.15;;;12.90;99.90;;;;;;5088689;28;20026;-72
2022/10/23 05:15:52;;;;;;;19.15;9.20;;;12.90;99.90;;;;;;5113028;28;20042;-73
2022/10/23 05:18:47;;;;;;;17.77;8.68;;;12.90;99.90;;;;;;5101654;28;20030;-72
2022/10/23 05:21:19;;;;;;;11.98;6.47;;;12.90;99.90;;;;;;5091005;28;20109;-72
2022/10/23 05:23:45;;;;;;;15.88;8.35;;;12.90;99.90;;;;;;5094843;28;20487;-72
2022/10/23 05:26:11;;;;;;;19.30;8.35;;;12.90;99.90;;;;;;5108470;28;20019;-73
2022/10/23 05:28:36;;;;;;;18.05;8.82;;;12.90;99.90;;;;;;5112406;28;20027;-72
2022/10/23 05:31:04;;;;;;;17.35;8.50;;;12.90;99.90;;;;;;5092317;28;20032;-72
2022/10/23 05:33:31;;;;;;;20.63;9.45;;;13.00;99.90;;;;;;5094352;28;20533;-72
2022/10/23 05:35:58;;;;;;;15.77;9.02;;;13.00;99.90;;;;;;5092382;28;20024;-72
2022/10/23 05:38:26;;;;;;;16.52;8.60;;;13.00;99.90;;;;;;5104098;28;20024;-72
2022/10/23 05:40:52;;;;;;;14.98;8.07;;;13.00;99.90;;;;;;5112725;28;20012;-72
2022/10/23 05:43:18;;;;;;;17.98;8.75;;;13.00;99.90;;;;;;5113258;28;20099;-73
2022/10/23 05:45:43;;;;;;;19.20;8.25;;;13.00;99.90;;;;;;5111547;28;20547;-72
2022/10/23 05:48:09;;;;;;;18.38;8.48;;;13.00;99.90;;;;;;5099315;28;20012;-73
2022/10/23 05:50:36;;;;;;;17.75;8.57;;;13.00;99.90;;;;;;5107381;28;20481;-72
2022/10/23 05:53:01;;;;;;;15.95;8.45;;;13.00;99.90;;;;;;5102301;28;20126;-75
2022/10/23 05:55:27;;;;;;;17.70;8.70;;;13.00;99.90;;;;;;5097220;28;20166;-72
2022/10/23 05:57:53;;;;;;;18.13;8.75;;;13.00;99.90;;;;;;5100649;28;20460;-73
2022/10/23 06:00:19;;;;;;;17.90;9.27;;;13.00;99.90;;;;;;5110431;28;20065;-72
2022/10/23 06:02:44;;;;;;;22.35;8.70;;;12.90;99.90;;;;;;5106172;28;20055;-73
2022/10/23 06:05:10;;;;;;;18.33;8.55;;;12.90;99.90;;;;;;5106520;28;20525;-73
2022/10/23 06:07:36;;;;;;;21.02;8.27;;;12.90;99.90;;;;;;5086713;28;20115;-72
2022/10/23 06:10:03;;;;;;;15.75;7.70;;;12.90;99.90;;;;;;5097204;28;20112;-72
2022/10/23 06:12:30;;;;;;;13.57;7.47;;;12.90;99.90;;;;;;5101690;28;20561;-72
2022/10/23 06:14:56;;;;;;;16.75;7.80;;;12.90;99.90;;;;;;5093832;28;20024;-72
2022/10/23 06:17:22;;;;;;;16.27;8.30;;;12.90;99.90;;;;;;5093933;28;20020;-73
2022/10/23 06:19:48;;;;;;;17.05;8.50;;;12.90;99.90;;;;;;5106165;28;20024;-72
2022/10/23 06:22:13;;;;;;;17.00;9.07;;;12.90;99.90;;;;;;5105870;28;20016;-73
2022/10/23 06:24:39;;;;;;;14.88;8.13;;;12.90;99.90;;;;;;5103151;28;20016;-72
2022/10/23 06:27:04;;;;;;;13.88;7.70;;;13.00;99.90;;;;;;5096754;28;20543;-73
2022/10/23 06:29:30;;;;;;;14.65;7.68;;;12.90;99.90;;;;;;5107217;28;20479;-72
2022/10/23 06:31:56;;;;;;;15.57;8.20;;;12.90;99.90;;;;;;5107209;27;20023;-72
2022/10/23 06:34:21;;;;;;;25.48;8.93;;;12.90;99.90;;;;;;5095639;28;20104;-72
2022/10/23 06:36:47;;;;;;;14.20;8.10;;;12.90;99.90;;;;;;5094977;28;20024;-71
2022/10/23 06:39:13;;;;;;;17.88;8.40;;;13.00;99.90;;;;;;5095222;28;20039;-72
2022/10/23 06:41:40;;;;;;;17.65;8.10;;;12.90;99.90;;;;;;5102518;28;20091;-72
2022/10/23 06:44:09;;;;;;;19.52;8.10;;;13.00;99.90;;;;;;5105218;28;20026;-72
2022/10/23 06:46:35;;;;;;;16.88;8.10;;;12.90;99.90;;;;;;5102677;28;20054;-72
2022/10/23 06:49:00;;;;;;;17.92;8.70;;;13.00;99.90;;;;;;5099095;28;20041;-72
2022/10/23 06:51:28;;;;;;;17.92;8.20;;;12.90;99.90;;;;;;5104323;28;20445;-72
2022/10/23 06:53:55;;;;;;;19.58;8.48;;;13.00;99.90;;;;;;5096904;28;20016;-72
2022/10/23 06:56:21;;;;;;;15.57;7.97;;;12.90;99.90;;;;;;5072357;28;20028;-72
2022/10/23 06:58:47;;;;;;;17.45;8.90;;;13.00;99.90;;;;;;5094121;28;20016;-72
2022/10/23 07:01:15;;;;;;;17.95;9.30;;;13.00;99.90;;;;;;5093783;28;20024;-73
2022/10/23 07:03:41;;;;;;;15.93;7.72;;;13.00;99.90;;;;;;5104237;28;20514;-72
2022/10/23 07:06:08;;;;;;;16.27;8.93;;;13.00;99.90;;;;;;5105249;28;20383;-72
2022/10/23 07:08:34;;;;;;;17.23;8.55;;;13.00;99.90;;;;;;5105858;28;20031;-71
2022/10/23 07:11:05;;;;;;;14.27;8.82;;;13.00;99.90;;;;;;5081733;28;20499;-72
2022/10/23 07:13:31;;;;;;;17.98;8.63;;;13.00;99.90;;;;;;5087367;28;20096;-72
2022/10/23 07:15:57;;;;;;;14.32;8.55;;;13.10;99.90;;;;;;5094691;28;20040;-73
2022/10/23 07:18:23;;;;;;;19.08;8.73;;;13.10;99.90;;;;;;5084419;28;20080;-72
2022/10/23 07:20:55;;;;;;;16.83;9.13;;;13.10;99.90;;;;;;5103061;28;20011;-72
2022/10/23 07:23:21;;;;;;;13.95;8.50;;;13.10;99.90;;;;;;5093211;28;20039;-71
2022/10/23 07:25:46;;;;;;;22.25;9.25;;;13.10;99.90;;;;;;5098890;28;20024;-72
2022/10/23 07:28:12;;;;;;;17.17;9.38;;;13.10;99.90;;;;;;5087720;28;20019;-72
2022/10/23 07:30:39;;;;;;;20.80;9.77;;;13.20;99.90;;;;;;5083877;28;20043;-71
2022/10/23 07:33:05;;;;;;;16.90;9.43;;;13.20;99.90;;;;;;5083678;28;20016;-73
2022/10/23 07:35:30;;;;;;;20.98;9.93;;;13.20;99.90;;;;;;5106079;28;20024;-72
2022/10/23 07:37:58;;;;;;;18.73;9.57;;;13.20;99.90;;;;;;5104940;28;20020;-72
2022/10/23 07:40:24;;;;;;;20.95;9.88;;;13.30;99.90;;;;;;5093208;28;20074;-72
2022/10/23 07:42:50;;;;;;;22.27;9.25;;;13.30;99.90;;;;;;5106899;28;20484;-72
2022/10/23 07:45:15;;;;;;;19.02;9.20;;;13.30;99.90;;;;;;5092998;28;20020;-72
2022/10/23 07:47:41;;;;;;;18.15;9.52;;;13.30;99.90;;;;;;5095496;28;20023;-72
2022/10/23 07:50:07;;;;;;;17.88;9.55;;;13.30;99.90;;;;;;5098274;28;20459;-72
2022/10/23 07:52:35;;;;;;;15.88;9.60;;;13.40;99.90;;;;;;5098596;28;20059;-72
2022/10/23 07:55:00;;;;;;;19.13;9.27;;;13.40;99.90;;;;;;5109061;28;20086;-71
2022/10/23 07:57:26;;;;;;;17.75;9.88;;;13.50;99.90;;;;;;5109544;28;20023;-72
2022/10/23 07:59:53;;;;;;;18.85;9.65;;;13.50;99.90;;;;;;5107843;28;20578;-72
2022/10/23 08:02:19;;;;;;;17.15;9.93;;;13.50;99.90;;;;;;5109455;28;20509;-72
2022/10/23 08:04:47;;;;;;;16.40;9.30;;;13.50;99.90;;;;;;5103297;28;20102;-72
2022/10/23 08:07:13;;;;;;;21.45;9.57;;;13.50;99.90;;;;;;5110590;28;20102;-72
2022/10/23 08:09:39;;;;;;;17.33;9.68;;;13.60;99.90;;;;;;5109438;28;20103;-71
2022/10/23 08:12:04;;;;;;;17.13;9.77;;;13.60;99.90;;;;;;5090507;28;20012;-71
2022/10/23 08:14:30;;;;;;;15.85;9.13;;;13.60;99.90;;;;;;5089916;28;20013;-71
2022/10/23 08:16:56;;;;;;;21.15;10.10;;;13.60;99.90;;;;;;5105140;28;20099;-71
2022/10/23 08:19:21;;;;;;;18.60;9.88;;;13.70;99.90;;;;;;5109257;28;20047;-71
2022/10/23 08:21:47;;;;;;;18.45;8.95;;;13.70;99.90;;;;;;5107772;28;20057;-71
2022/10/23 08:24:12;;;;;;;20.08;9.38;;;13.70;99.90;;;;;;5107356;28;20027;-71
2022/10/23 08:26:38;;;;;;;17.35;9.73;;;13.70;99.90;;;;;;5087250;28;20337;-71
2022/10/23 08:29:04;;;;;;;17.02;9.80;;;13.70;99.90;;;;;;5104295;28;20046;-74
2022/10/23 08:31:29;;;;;;;19.25;9.43;;;13.80;99.90;;;;;;5108909;28;20370;-73
2022/10/23 08:33:55;;;;;;;14.60;9.20;;;13.80;99.90;;;;;;5107234;28;20023;-72
2022/10/23 08:36:26;;;;;;;16.92;9.30;;;13.80;99.90;;;;;;5107831;28;20024;-73
2022/10/23 08:38:54;;;;;;;20.23;9.13;;;13.80;99.90;;;;;;5107581;28;20391;-72
2022/10/23 08:41:47;;;;;;;19.50;9.90;;;13.80;99.90;;;;;;5086287;28;20037;-71
2022/10/23 08:44:34;;;;;;;17.65;9.32;;;13.90;99.90;;;;;;5089408;28;20036;-72
2022/10/23 08:47:02;;;;;;;18.38;9.98;;;13.90;99.90;;;;;;5094558;28;20024;-72
2022/10/23 08:49:31;;;;;;;17.67;9.23;;;13.90;99.90;;;;;;5101019;28;20023;-72
2022/10/23 08:51:59;;;;;;;19.23;10.95;;;14.00;99.90;;;;;;5103807;28;20051;-74
2022/10/23 08:54:56;;;;;;;17.30;9.43;;;14.00;99.90;;;;;;5102395;28;20031;-72
2022/10/23 08:57:25;;;;;;;16.55;8.93;;;14.00;99.90;;;;;;5106992;28;20234;-71
2022/10/23 08:59:58;;;;;;;20.05;9.25;;;14.00;99.90;;;;;;5102696;28;20472;-71
2022/10/23 09:02:39;;;;;;;15.80;8.50;;;14.00;99.90;;;;;;5105575;28;20104;-74
2022/10/23 09:05:15;;;;;;;15.90;9.02;;;14.10;99.90;;;;;;5098382;28;20114;-74
2022/10/23 09:07:50;;;;;;;16.52;9.10;;;14.10;99.90;;;;;;5090004;28;20127;-73
2022/10/23 09:10:48;;;;;;;12.50;6.80;;;14.20;99.90;;;;;;5101939;28;20377;-73
2022/10/23 09:13:34;;;;;;;15.48;8.63;;;14.20;99.90;;;;;;4993934;28;20048;-73
2022/10/23 09:16:34;;;;;;;13.73;8.57;;;14.30;99.90;;;;;;5009317;28;20034;-74
2022/10/23 09:18:59;;;;;;;14.95;8.13;;;14.30;99.90;;;;;;5010724;28;20107;-72
2022/10/23 09:21:29;;;;;;;16.80;8.80;;;14.30;99.90;;;;;;5009315;28;20542;-72
2022/10/23 09:23:55;;;;;;;19.23;8.13;;;14.30;99.90;;;;;;5005496;28;20045;-73
2022/10/23 09:26:21;;;;;;;14.13;8.25;;;14.40;99.90;;;;;;5006070;28;20029;-73
2022/10/23 09:28:49;;;;;;;13.27;7.95;;;14.40;99.90;;;;;;5007913;28;20034;-73
2022/10/23 09:31:16;;;;;;;15.15;8.00;;;14.50;99.90;;;;;;5001757;28;20101;-73
2022/10/23 09:33:53;;;;;;;13.60;7.97;;;14.50;99.90;;;;;;5005289;28;20057;-74
2022/10/23 09:36:23;;;;;;;13.90;7.28;;;14.60;99.90;;;;;;5003093;28;20572;-73
2022/10/23 09:38:51;;;;;;;17.55;8.25;;;14.60;99.90;;;;;;5008538;28;20441;-73
2022/10/23 09:41:20;;;;;;;13.35;7.35;;;14.60;99.90;;;;;;5008631;28;20041;-74
2022/10/23 09:43:46;;;;;;;14.40;7.40;;;14.60;99.90;;;;;;5009245;28;20437;-74
2022/10/23 09:46:12;;;;;;;13.35;7.32;;;14.60;99.90;;;;;;4999479;28;20026;-73
2022/10/23 09:48:41;;;;;;;13.40;7.20;;;14.70;99.90;;;;;;5051398;28;20076;-75
2022/10/23 09:51:19;;;;;;;12.60;7.32;;;14.70;99.90;;;;;;5106463;28;20392;-73
2022/10/23 09:54:14;;;;;;;13.13;7.00;;;14.70;99.90;;;;;;5100088;28;20016;-76
2022/10/23 09:56:40;;;;;;;12.90;7.38;;;14.70;99.90;;;;;;5088618;28;20093;-72
2022/10/23 09:59:12;;;;;;;14.23;7.70;;;14.70;99.90;;;;;;5093741;28;20103;-73
2022/10/23 10:01:50;;;;;;;13.93;6.95;;;14.80;99.90;;;;;;5093248;28;20091;-73
2022/10/23 10:04:17;;;;;;;14.77;7.45;;;14.80;99.90;;;;;;5106266;28;20469;-74
2022/10/23 10:06:43;;;;;;;17.20;7.82;;;14.80;99.90;;;;;;5090355;28;20027;-72
2022/10/23 10:09:14;;;;;;;15.00;7.72;;;14.80;99.90;;;;;;5099902;28;20020;-72
2022/10/23 10:11:45;;;;;;;15.18;7.32;;;14.80;99.90;;;;;;5103982;28;20024;-72
2022/10/23 10:14:22;;;;;;;14.10;6.85;;;14.90;99.90;;;;;;5101213;28;20048;-72
2022/10/23 10:17:07;;;;;;;15.30;7.38;;;14.90;99.90;;;;;;5101234;28;20047;-73
2022/10/23 10:19:47;;;;;;;14.60;7.00;;;14.90;99.90;;;;;;5107973;28;20047;-72
2022/10/23 10:22:31;;;;;;;13.20;7.80;;;14.90;99.90;;;;;;5105371;28;20563;-72
2022/10/23 10:25:10;;;;;;;13.73;7.05;;;15.00;99.90;;;;;;5107382;28;20058;-73
2022/10/23 10:27:54;;;;;;;15.38;7.15;;;15.00;99.90;;;;;;5090244;28;20389;-72
2022/10/23 10:30:22;;;;;;;13.32;7.65;;;15.00;99.90;;;;;;5105784;28;20039;-73
2022/10/23 10:33:10;;;;;;;12.85;6.68;;;15.10;99.90;;;;;;5111124;28;20030;-73
2022/10/23 10:35:50;;;;;;;11.02;6.55;;;15.10;99.90;;;;;;5110833;28;20495;-72
2022/10/23 10:38:33;;;;;;;13.95;6.72;;;15.10;99.90;;;;;;5111037;28;20027;-72
2022/10/23 10:41:28;;;;;;;13.68;6.95;;;15.20;99.90;;;;;;5109656;28;20409;-72
2022/10/23 10:44:11;;;;;;;14.25;7.32;;;15.20;99.90;;;;;;5109758;28;20449;-74
2022/10/23 10:46:57;;;;;;;14.32;6.53;;;15.30;99.90;;;;;;5107141;28;20081;-71
2022/10/23 10:49:30;;;;;;;14.23;6.45;;;15.30;99.90;;;;;;5088272;28;20036;-72
2022/10/23 10:52:20;;;;;;;19.70;6.50;;;15.30;99.90;;;;;;5102160;28;20122;-73
2022/10/23 10:55:06;;;;;;;13.73;5.82;;;15.30;99.90;;;;;;5106241;28;20437;-73
2022/10/23 10:57:38;;;;;;;12.13;6.50;;;15.40;99.90;;;;;;5104454;28;20533;-73
2022/10/23 11:00:13;;;;;;;16.88;6.82;;;15.40;99.90;;;;;;5106570;28;20061;-72
2022/10/23 11:03:02;;;;;;;12.95;6.70;;;15.50;99.90;;;;;;5100224;28;20027;-71
2022/10/23 11:05:33;;;;;;;13.05;5.88;;;15.50;99.90;;;;;;5097025;28;20077;-72
2022/10/23 11:08:16;;;;;;;13.60;6.43;;;15.50;99.90;;;;;;5099125;28;20077;-71
2022/10/23 11:10:45;;;;;;;11.38;5.95;;;15.70;99.90;;;;;;5094736;28;20059;-72
2022/10/23 11:13:33;;;;;;;13.30;6.43;;;15.70;99.90;;;;;;5104295;28;20103;-72
2022/10/23 11:16:28;;;;;;;15.18;6.43;;;15.80;99.90;;;;;;5102248;28;20475;-72
2022/10/23 11:19:05;;;;;;;9.85;5.85;;;15.90;99.90;;;;;;5107607;28;20054;-73
2022/10/23 11:21:51;;;;;;;11.05;5.60;;;16.00;99.90;;;;;;5107736;28;20028;-73
2022/10/23 11:24:44;;;;;;;11.77;5.57;;;16.00;99.90;;;;;;5093011;28;20063;-73
2022/10/23 11:27:47;;;;;;;14.88;5.88;;;16.20;99.90;;;;;;5095888;28;20068;-73
2022/10/23 11:30:28;;;;;;;14.20;6.30;;;16.30;99.90;;;;;;5104860;28;20106;-72
2022/10/23 11:33:18;;;;;;;12.75;5.78;;;16.40;99.90;;;;;;5104276;28;20499;-72
2022/10/23 11:35:49;;;;;;;13.93;5.85;;;16.50;99.90;;;;;;5107022;28;20915;-71
2022/10/23 11:38:17;;;;;;;8.93;5.10;;;16.60;99.90;;;;;;5111742;28;20734;-72
2022/10/23 11:40:50;;;;;;;16.73;5.60;;;16.70;99.90;;;;;;5111320;28;20020;-72
2022/10/23 11:43:32;;;;;;;7.38;4.85;;;16.80;99.90;;;;;;5111701;28;20061;-75
2022/10/23 11:46:09;;;;;;;11.00;5.00;;;16.80;99.90;;;;;;5111722;28;20074;-72
2022/10/23 11:48:41;;;;;;;17.15;5.35;;;16.90;99.90;;;;;;5085031;28;20450;-73
2022/10/23 11:51:32;;;;;;;8.75;4.72;;;17.00;99.90;;;;;;5096677;28;20073;-71
2022/10/23 11:54:15;;;;;;;8.82;4.68;;;17.00;99.90;;;;;;5094780;28;20422;-73
2022/10/23 11:57:13;;;;;;;18.25;5.18;;;17.10;99.90;;;;;;5090627;28;20026;-72
2022/10/23 11:59:47;;;;;;;12.45;4.90;;;17.10;99.90;;;;;;5097864;28;20103;-71
2022/10/23 12:02:30;;;;;;;23.17;6.53;;;17.10;99.90;;;;;;5099651;28;20016;-72
2022/10/23 12:05:25;;;;;;;11.32;4.93;;;17.10;99.90;;;;;;5106931;28;20023;-71
2022/10/23 12:07:57;;;;;;;17.13;5.53;;;17.10;99.90;;;;;;5109924;28;20459;-71
2022/10/23 12:10:44;;;;;;;18.67;5.75;;;17.20;99.90;;;;;;5093147;28;20032;-72
2022/10/23 12:13:27;;;;;;;11.18;4.55;;;17.20;99.90;;;;;;5102471;28;20020;-72
2022/10/23 12:15:54;;;;;;;9.77;4.15;;;17.30;99.90;;;;;;5098943;28;20110;-71
2022/10/23 12:18:19;;;;;;;9.70;3.88;;;17.30;99.90;;;;;;5108184;28;20038;-71
2022/10/23 12:21:15;;;;;;;13.93;5.10;;;17.40;99.90;;;;;;5093321;28;20463;-71
2022/10/23 12:24:02;;;;;;;16.65;4.10;;;17.50;99.90;;;;;;5100982;28;20115;-72
2022/10/23 12:26:53;;;;;;;5.72;3.80;;;17.50;99.90;;;;;;5107625;28;20035;-72
2022/10/23 12:29:19;;;;;;;10.15;3.45;;;17.60;99.90;;;;;;5106555;28;20661;-72
2022/10/23 12:31:55;;;;;;;10.98;3.90;;;17.60;99.90;;;;;;5093213;28;20025;-72
2022/10/23 12:34:37;;;;;;;9.20;4.00;;;17.70;99.90;;;;;;5081528;28;20087;-72
2022/10/23 12:37:32;;;;;;;6.88;3.70;;;17.80;99.90;;;;;;5111162;28;20094;-72
2022/10/23 12:40:00;;;;;;;20.70;5.53;;;17.90;99.90;;;;;;5103021;28;20035;-72
2022/10/23 12:42:28;;;;;;;23.77;6.00;;;17.90;99.90;;;;;;5096331;28;20548;-71
2022/10/23 12:45:18;;;;;;;17.80;5.43;;;17.90;99.90;;;;;;5108122;28;20502;-71
2022/10/23 12:47:46;;;;;;;12.50;3.78;;;18.00;99.90;;;;;;5085581;28;20568;-72
2022/10/23 12:50:24;;;;;;;10.50;3.83;;;18.10;99.90;;;;;;5098129;28;20020;-72
2022/10/23 12:52:59;;;;;;;8.80;3.67;;;18.10;99.90;;;;;;5105952;28;20135;-71
2022/10/23 12:55:27;;;;;;;;;;;18.20;99.90;;;;;;5112421;28;20024;-72